createdAt,value
2023-03-27T00:01:12.155Z,98899.00
2023-03-27T00:03:40.748Z,98900.00
2023-03-27T00:06:10.606Z,98900.00
2023-03-27T00:08:38.318Z,98904.00
2023-03-27T00:11:07.284Z,98907.00
2023-03-27T00:13:35.726Z,98894.00
2023-03-27T00:16:04.563Z,98904.00
2023-03-27T00:18:33.004Z,98916.00
2023-03-27T00:21:02.432Z,98913.00
2023-03-27T00:23:30.394Z,98933.00
2023-03-27T00:25:58.554Z,98942.00
2023-03-27T00:28:28.048Z,98964.00
2023-03-27T00:30:57.732Z,98961.00
2023-03-27T00:33:25.937Z,98962.00
2023-03-27T00:35:53.817Z,98965.00
2023-03-27T00:38:22.275Z,98973.00
2023-03-27T00:40:52.775Z,98982.00
2023-03-27T00:43:22.360Z,98991.00
2023-03-27T00:45:54.312Z,98985.00
2023-03-27T00:48:22.396Z,98999.00
2023-03-27T00:50:51.298Z,99032.00
2023-03-27T00:53:24.368Z,99031.00
2023-03-27T00:55:55.690Z,99031.00
2023-03-27T00:58:25.951Z,99033.00
2023-03-27T01:00:55.027Z,99026.00
2023-03-27T01:03:24.912Z,99031.00
2023-03-27T01:05:54.434Z,99052.00
2023-03-27T01:08:23.841Z,99030.00
2023-03-27T01:11:02.045Z,99041.00
2023-03-27T01:13:44.411Z,99042.00
2023-03-27T01:16:18.702Z,99036.00
2023-03-27T01:18:57.929Z,99049.00
2023-03-27T01:21:57.892Z,99054.00
2023-03-27T01:24:56.461Z,99053.00
2023-03-27T01:27:42.047Z,99059.00
2023-03-27T01:30:18.230Z,99070.00
2023-03-27T01:33:15.870Z,99069.00
2023-03-27T01:36:11.291Z,99081.00
2023-03-27T01:39:31.433Z,99089.00
2023-03-27T01:42:06.251Z,99097.00
2023-03-27T01:44:44.115Z,99094.00
2023-03-27T01:47:21.424Z,99099.00
2023-03-27T01:49:54.203Z,99106.00
2023-03-27T01:52:28.068Z,99119.00
2023-03-27T01:55:04.198Z,99106.00
2023-03-27T01:57:38.638Z,99122.00
2023-03-27T02:00:21.467Z,99116.00
2023-03-27T02:02:54.172Z,99118.00
2023-03-27T02:05:26.542Z,99147.00
2023-03-27T02:07:59.178Z,99135.00
2023-03-27T02:10:32.174Z,99151.00
2023-03-27T02:13:05.802Z,99153.00
2023-03-27T02:15:36.564Z,99147.00
2023-03-27T02:18:09.329Z,99150.00
2023-03-27T02:20:38.208Z,99155.00
2023-03-27T02:23:06.939Z,99169.00
2023-03-27T02:25:38.186Z,99184.00
2023-03-27T02:28:22.125Z,99179.00
2023-03-27T02:31:06.018Z,99184.00
2023-03-27T02:33:59.799Z,99186.00
2023-03-27T02:36:35.662Z,99194.00
2023-03-27T02:39:08.101Z,99199.00
2023-03-27T02:41:40.513Z,99198.00
2023-03-27T02:44:14.598Z,99197.00
2023-03-27T02:46:46.595Z,99202.00
2023-03-27T02:49:19.376Z,99217.00
2023-03-27T02:51:52.779Z,99224.00
2023-03-27T02:54:24.893Z,99230.00
2023-03-27T02:56:58.317Z,99242.00
2023-03-27T02:59:30.220Z,99245.00
2023-03-27T03:01:58.101Z,99248.00
2023-03-27T03:04:28.117Z,99251.00
2023-03-27T03:06:55.773Z,99262.00
2023-03-27T03:09:24.093Z,99258.00
2023-03-27T03:11:53.662Z,99259.00
2023-03-27T03:14:25.678Z,99262.00
2023-03-27T03:16:53.052Z,99267.00
2023-03-27T03:19:21.082Z,99294.00
2023-03-27T03:21:48.910Z,99290.00
2023-03-27T03:24:16.861Z,99294.00
2023-03-27T03:26:44.456Z,99293.00
2023-03-27T03:29:13.508Z,99308.00
2023-03-27T03:31:43.778Z,99318.00
2023-03-27T03:34:11.966Z,99321.00
2023-03-27T03:36:41.304Z,99324.00
2023-03-27T03:39:09.148Z,99335.00
2023-03-27T03:41:36.550Z,99339.00
2023-03-27T03:44:03.879Z,99350.00
2023-03-27T03:46:31.884Z,99351.00
2023-03-27T03:48:59.546Z,99356.00
2023-03-27T03:51:27.605Z,99357.00
2023-03-27T03:53:55.171Z,99371.00
2023-03-27T03:56:22.509Z,99377.00
2023-03-27T03:58:50.126Z,99384.00
2023-03-27T04:01:20.007Z,99384.00
2023-03-27T04:03:48.446Z,99394.00
2023-03-27T04:06:16.963Z,99388.00
2023-03-27T04:08:48.204Z,99400.00
2023-03-27T04:11:15.562Z,99405.00
2023-03-27T04:13:42.853Z,99399.00
2023-03-27T04:16:10.413Z,99409.00
2023-03-27T04:18:40.425Z,99419.00
2023-03-27T04:21:13.628Z,99426.00
2023-03-27T04:23:41.274Z,99435.00
2023-03-27T04:26:11.385Z,99444.00
2023-03-27T04:28:39.656Z,99453.00
2023-03-27T04:31:09.480Z,99455.00
2023-03-27T04:33:38.921Z,99464.00
2023-03-27T04:36:08.611Z,99467.00
2023-03-27T04:38:37.455Z,99470.00
2023-03-27T04:41:05.405Z,99470.00
2023-03-27T04:43:35.863Z,99474.00
2023-03-27T04:46:03.605Z,99479.00
2023-03-27T04:48:30.914Z,99491.00
2023-03-27T04:50:58.637Z,99497.00
2023-03-27T04:53:29.490Z,99498.00
2023-03-27T04:55:56.923Z,99506.00
2023-03-27T04:58:25.127Z,99506.00
2023-03-27T05:00:55.449Z,99510.00
2023-03-27T05:03:23.564Z,99512.00
2023-03-27T05:05:51.036Z,99521.00
2023-03-27T05:08:18.473Z,99531.00
2023-03-27T05:10:46.814Z,99539.00
2023-03-27T05:13:14.205Z,99541.00
2023-03-27T05:15:41.590Z,99552.00
2023-03-27T05:18:09.246Z,99561.00
2023-03-27T05:20:37.403Z,99568.00
2023-03-27T05:23:04.967Z,99551.00
2023-03-27T05:25:33.124Z,99563.00
2023-03-27T05:28:01.192Z,99574.00
2023-03-27T05:30:28.817Z,99575.00
2023-03-27T05:32:58.484Z,99573.00
2023-03-27T05:35:27.656Z,99573.00
2023-03-27T05:37:56.482Z,99575.00
2023-03-27T05:40:25.375Z,99584.00
2023-03-27T05:42:53.353Z,99589.00
2023-03-27T05:45:22.018Z,99588.00
2023-03-27T05:47:51.133Z,99596.00
2023-03-27T05:50:19.425Z,99603.00
2023-03-27T05:52:47.102Z,99603.00
2023-03-27T05:55:14.793Z,99615.00
2023-03-27T05:57:42.741Z,99625.00
2023-03-27T06:00:13.297Z,99625.00
2023-03-27T06:02:42.736Z,99627.00
2023-03-27T06:05:13.688Z,99640.00
2023-03-27T06:07:43.286Z,99636.00
2023-03-27T06:10:13.250Z,99636.00
2023-03-27T06:12:42.074Z,99647.00
2023-03-27T06:15:11.111Z,99648.00
2023-03-27T06:17:41.564Z,99643.00
2023-03-27T06:20:11.585Z,99648.00
2023-03-27T06:22:41.731Z,99659.00
2023-03-27T06:25:09.303Z,99663.00
2023-03-27T06:27:37.299Z,99671.00
2023-03-27T06:30:05.652Z,99680.00
2023-03-27T06:32:33.741Z,99690.00
2023-03-27T06:35:02.470Z,99679.00
2023-03-27T06:37:33.116Z,99686.00
2023-03-27T06:40:01.122Z,99686.00
2023-03-27T06:42:28.390Z,99693.00
2023-03-27T06:44:56.156Z,99711.00
2023-03-27T06:47:23.686Z,99697.00
2023-03-27T06:49:50.959Z,99710.00
2023-03-27T06:52:18.979Z,99716.00
2023-03-27T06:54:46.350Z,99695.00
2023-03-27T06:57:14.646Z,99713.00
2023-03-27T06:59:41.932Z,99726.00
2023-03-27T07:02:11.349Z,99718.00
2023-03-27T07:04:38.645Z,99722.00
2023-03-27T07:07:05.977Z,99745.00
2023-03-27T07:09:33.933Z,99737.00
2023-03-27T07:12:01.244Z,99749.00
2023-03-27T07:14:28.531Z,99748.00
2023-03-27T07:16:56.017Z,99757.00
2023-03-27T07:19:23.295Z,99752.00
2023-03-27T07:21:50.518Z,99755.00
2023-03-27T07:24:17.920Z,99764.00
2023-03-27T07:26:45.917Z,99756.00
2023-03-27T07:29:13.266Z,99769.00
2023-03-27T07:31:55.862Z,99766.00
2023-03-27T07:34:25.479Z,99787.00
2023-03-27T07:36:52.831Z,99782.00
2023-03-27T07:39:20.314Z,99785.00
2023-03-27T07:41:48.558Z,99763.00
2023-03-27T07:44:15.993Z,99785.00
2023-03-27T07:46:43.397Z,99786.00
2023-03-27T07:49:10.789Z,99796.00
2023-03-27T07:51:39.152Z,99782.00
2023-03-27T07:54:06.465Z,99790.00
2023-03-27T07:56:34.006Z,99787.00
2023-03-27T07:59:03.309Z,99791.00
2023-03-27T08:01:31.540Z,99795.00
2023-03-27T08:03:58.863Z,99792.00
2023-03-27T08:06:26.686Z,99798.00
2023-03-27T08:08:53.983Z,99797.00
2023-03-27T08:11:30.284Z,99819.00
2023-03-27T08:13:58.266Z,99825.00
2023-03-27T08:16:28.626Z,99827.00
2023-03-27T08:18:56.901Z,99824.00
2023-03-27T08:21:24.218Z,99822.00
2023-03-27T08:23:51.658Z,99823.00
2023-03-27T08:26:20.184Z,99830.00
2023-03-27T08:28:47.391Z,99828.00
2023-03-27T08:31:15.834Z,99825.00
2023-03-27T08:33:43.952Z,99823.00
2023-03-27T08:36:13.593Z,99828.00
2023-03-27T08:38:42.333Z,99834.00
2023-03-27T08:41:23.549Z,99836.00
2023-03-27T08:43:52.559Z,99829.00
2023-03-27T08:46:23.491Z,99831.00
2023-03-27T08:48:57.348Z,99837.00
2023-03-27T08:51:28.725Z,99840.00
2023-03-27T08:54:00.186Z,99861.00
2023-03-27T08:56:27.968Z,99859.00
2023-03-27T08:58:55.361Z,99845.00
2023-03-27T09:01:29.681Z,99855.00
2023-03-27T09:04:05.007Z,99857.00
2023-03-27T09:06:40.927Z,99864.00
2023-03-27T09:09:19.914Z,99855.00
2023-03-27T09:11:58.946Z,99868.00
2023-03-27T09:14:32.673Z,99864.00
2023-03-27T09:17:06.851Z,99873.00
2023-03-27T09:19:43.447Z,99878.00
2023-03-27T09:22:15.765Z,99863.00
2023-03-27T09:24:46.515Z,99882.00
2023-03-27T09:27:20.111Z,99876.00
2023-03-27T09:30:05.025Z,99884.00
2023-03-27T09:32:34.286Z,99873.00
2023-03-27T09:35:03.861Z,99861.00
2023-03-27T09:37:31.165Z,99880.00
2023-03-27T09:40:00.131Z,99876.00
2023-03-27T09:42:31.597Z,99880.00
2023-03-27T09:45:02.624Z,99875.00
2023-03-27T09:47:35.655Z,99900.00
2023-03-27T09:50:21.462Z,99898.00
2023-03-27T09:52:48.756Z,99900.00
2023-03-27T09:55:26.480Z,99905.00
2023-03-27T09:57:59.393Z,99906.00
2023-03-27T10:00:30.149Z,99896.00
2023-03-27T10:03:03.386Z,99911.00
2023-03-27T10:05:32.203Z,99899.00
2023-03-27T10:08:00.332Z,99902.00
2023-03-27T10:10:31.708Z,99914.00
2023-03-27T10:13:00.815Z,99917.00
2023-03-27T10:15:33.655Z,99913.00
2023-03-27T10:18:03.788Z,99910.00
2023-03-27T10:20:32.032Z,99911.00
2023-03-27T10:23:02.347Z,99916.00
2023-03-27T10:25:33.502Z,99925.00
2023-03-27T10:28:18.189Z,99920.00
2023-03-27T10:30:46.367Z,99924.00
2023-03-27T10:33:28.487Z,99920.00
2023-03-27T10:35:58.731Z,99925.00
2023-03-27T10:38:27.125Z,99915.00
2023-03-27T10:40:56.531Z,99929.00
2023-03-27T10:43:31.891Z,99934.00
2023-03-27T10:46:03.950Z,99920.00
2023-03-27T10:48:43.769Z,99941.00
2023-03-27T10:51:28.345Z,99938.00
2023-03-27T10:54:06.133Z,99954.00
2023-03-27T10:56:40.660Z,99955.00
2023-03-27T10:59:15.761Z,99940.00
2023-03-27T11:01:46.472Z,99948.00
2023-03-27T11:04:19.931Z,99964.00
2023-03-27T11:06:49.957Z,99961.00
2023-03-27T11:09:23.375Z,99967.00
2023-03-27T11:11:56.008Z,99954.00
2023-03-27T11:14:31.037Z,99967.00
2023-03-27T11:17:03.295Z,99982.00
2023-03-27T11:19:37.787Z,99968.00
2023-03-27T11:22:12.467Z,99979.00
2023-03-27T11:24:46.686Z,99966.00
2023-03-27T11:27:20.343Z,99969.00
2023-03-27T11:29:56.428Z,99967.00
2023-03-27T11:32:35.143Z,99973.00
2023-03-27T11:35:10.503Z,99981.00
2023-03-27T11:37:45.754Z,99987.00
2023-03-27T11:40:20.535Z,99979.00
2023-03-27T11:42:48.205Z,99975.00
2023-03-27T11:45:20.499Z,99986.00
2023-03-27T11:48:04.968Z,99990.00
2023-03-27T11:50:40.186Z,99998.00
2023-03-27T11:53:41.349Z,99987.00
2023-03-27T11:56:24.490Z,99991.00
2023-03-27T11:59:08.961Z,99994.00
2023-03-27T12:01:40.693Z,99991.00
2023-03-27T12:04:36.096Z,100013.00
2023-03-27T12:07:13.332Z,99987.00
2023-03-27T12:09:56.385Z,99989.00
2023-03-27T12:12:39.746Z,99993.00
2023-03-27T12:15:17.607Z,99990.00
2023-03-27T12:17:54.370Z,99989.00
2023-03-27T12:20:52.996Z,99992.00
2023-03-27T12:23:42.987Z,99985.00
2023-03-27T12:26:42.958Z,99990.00
2023-03-27T12:29:24.149Z,99986.00
2023-03-27T12:32:04.722Z,99977.00
2023-03-27T12:34:49.576Z,99981.00
2023-03-27T12:37:18.820Z,99985.00
2023-03-27T12:39:51.895Z,99986.00
2023-03-27T12:42:44.090Z,99999.00
2023-03-27T12:45:17.691Z,99998.00
2023-03-27T12:48:03.509Z,100004.00
2023-03-27T12:50:40.610Z,100011.00
2023-03-27T12:53:17.972Z,100025.00
2023-03-27T12:55:45.291Z,100038.00
2023-03-27T12:58:31.615Z,100037.00
2023-03-27T13:00:59.390Z,100026.00
2023-03-27T13:03:56.390Z,100031.00
2023-03-27T13:06:33.993Z,100022.00
2023-03-27T13:09:23.575Z,100023.00
2023-03-27T13:12:25.069Z,100023.00
2023-03-27T13:15:21.887Z,100026.00
2023-03-27T13:18:04.967Z,100017.00
2023-03-27T13:20:44.742Z,100026.00
2023-03-27T13:23:26.110Z,100027.00
2023-03-27T13:26:13.461Z,100035.00
2023-03-27T13:28:45.829Z,100040.00
2023-03-27T13:31:34.160Z,100051.00
2023-03-27T13:34:15.667Z,100074.00
2023-03-27T13:36:48.085Z,100052.00
2023-03-27T13:39:23.969Z,100045.00
2023-03-27T13:42:02.361Z,100047.00
2023-03-27T13:44:42.959Z,100057.00
2023-03-27T13:47:39.205Z,100062.00
2023-03-27T13:50:26.396Z,100080.00
2023-03-27T13:53:23.814Z,100090.00
2023-03-27T13:56:10.476Z,100061.00
2023-03-27T13:58:58.853Z,100050.00
2023-03-27T14:01:37.888Z,100045.00
2023-03-27T14:04:28.769Z,100049.00
2023-03-27T14:07:19.401Z,100079.00
2023-03-27T14:10:07.872Z,100092.00
2023-03-27T14:12:48.211Z,100124.00
2023-03-27T14:15:32.587Z,100102.00
2023-03-27T14:18:20.819Z,100100.00
2023-03-27T14:20:53.070Z,100109.00
2023-03-27T14:23:25.833Z,100107.00
2023-03-27T14:26:01.160Z,100117.00
2023-03-27T14:28:31.299Z,100107.00
2023-03-27T14:31:01.528Z,100118.00
2023-03-27T14:33:28.849Z,100114.00
2023-03-27T14:36:03.186Z,100124.00
2023-03-27T14:38:32.927Z,100127.00
2023-03-27T14:41:01.865Z,100143.00
2023-03-27T14:43:29.949Z,100122.00
2023-03-27T14:46:00.603Z,100132.00
2023-03-27T14:48:32.452Z,100120.00
2023-03-27T14:51:03.650Z,100129.00
2023-03-27T14:53:35.941Z,100124.00
2023-03-27T14:56:10.927Z,100131.00
2023-03-27T14:58:45.449Z,100140.00
2023-03-27T15:01:16.347Z,100136.00
2023-03-27T15:03:45.700Z,100130.00
2023-03-27T15:06:16.682Z,100148.00
2023-03-27T15:08:46.534Z,100133.00
2023-03-27T15:11:16.621Z,100151.00
2023-03-27T15:13:47.392Z,100147.00
2023-03-27T15:16:19.355Z,100157.00
2023-03-27T15:18:55.606Z,100150.00
2023-03-27T15:21:38.265Z,100116.00
2023-03-27T15:24:09.945Z,100145.00
2023-03-27T15:26:37.432Z,100153.00
2023-03-27T15:29:08.527Z,100139.00
2023-03-27T15:31:38.092Z,100142.00
2023-03-27T15:34:12.113Z,100145.00
2023-03-27T15:36:42.615Z,100139.00
2023-03-27T15:39:20.488Z,100154.00
2023-03-27T15:41:51.448Z,100148.00
2023-03-27T15:44:21.586Z,100147.00
2023-03-27T15:46:54.575Z,100154.00
2023-03-27T15:49:26.712Z,100148.00
2023-03-27T15:51:55.486Z,100162.00
2023-03-27T15:54:31.957Z,100149.00
2023-03-27T15:57:10.966Z,100160.00
2023-03-27T15:59:52.451Z,100161.00
2023-03-27T16:02:24.193Z,100161.00
2023-03-27T16:04:54.578Z,100171.00
2023-03-27T16:07:27.240Z,100165.00
2023-03-27T16:09:56.255Z,100164.00
2023-03-27T16:12:30.358Z,100166.00
2023-03-27T16:14:58.489Z,100155.00
2023-03-27T16:17:34.223Z,100164.00
2023-03-27T16:20:21.429Z,100174.00
2023-03-27T16:22:50.382Z,100169.00
2023-03-27T16:25:18.122Z,100162.00
2023-03-27T16:27:48.005Z,100178.00
2023-03-27T16:30:22.291Z,100176.00
2023-03-27T16:32:50.359Z,100196.00
2023-03-27T16:35:17.967Z,100191.00
2023-03-27T16:37:45.681Z,100188.00
2023-03-27T16:40:14.063Z,100207.00
2023-03-27T16:42:41.477Z,100203.00
2023-03-27T16:45:09.701Z,100206.00
2023-03-27T16:47:37.070Z,100202.00
2023-03-27T16:50:10.786Z,100207.00
2023-03-27T16:52:39.210Z,100213.00
2023-03-27T16:55:07.966Z,100235.00
2023-03-27T16:57:36.037Z,100258.00
2023-03-27T17:00:04.570Z,100279.00
2023-03-27T17:02:34.688Z,100278.00
2023-03-27T17:05:02.659Z,100280.00
2023-03-27T17:07:29.938Z,100268.00
2023-03-27T17:09:57.235Z,100267.00
2023-03-27T17:12:24.778Z,100278.00
2023-03-27T17:14:52.848Z,100286.00
2023-03-27T17:17:20.383Z,100282.00
2023-03-27T17:19:47.705Z,100275.00
2023-03-27T17:22:15.059Z,100273.00
2023-03-27T17:24:55.376Z,100288.00
2023-03-27T17:27:25.652Z,100304.00
2023-03-27T17:29:54.809Z,100334.00
2023-03-27T17:32:22.318Z,100320.00
2023-03-27T17:34:51.314Z,100344.00
2023-03-27T17:37:18.931Z,100335.00
2023-03-27T17:39:46.348Z,100343.00
2023-03-27T17:42:13.711Z,100345.00
2023-03-27T17:44:41.979Z,100342.00
2023-03-27T17:47:10.315Z,100324.00
2023-03-27T17:49:37.658Z,100330.00
2023-03-27T17:52:07.491Z,100330.00
2023-03-27T17:54:35.314Z,100322.00
2023-03-27T17:57:03.121Z,100330.00
2023-03-27T17:59:31.259Z,100334.00
2023-03-27T18:01:58.939Z,100333.00
2023-03-27T18:04:27.185Z,100336.00
2023-03-27T18:06:54.518Z,100348.00
2023-03-27T18:09:21.983Z,100347.00
2023-03-27T18:11:49.333Z,100362.00
2023-03-27T18:14:16.905Z,100357.00
2023-03-27T18:16:44.370Z,100346.00
2023-03-27T18:19:12.723Z,100349.00
2023-03-27T18:21:40.759Z,100345.00
2023-03-27T18:24:08.692Z,100349.00
2023-03-27T18:26:36.181Z,100356.00
2023-03-27T18:29:04.256Z,100360.00
2023-03-27T18:31:31.530Z,100361.00
2023-03-27T18:33:59.060Z,100354.00
2023-03-27T18:36:26.562Z,100362.00
2023-03-27T18:38:55.786Z,100348.00
2023-03-27T18:41:23.119Z,100358.00
2023-03-27T18:43:50.593Z,100363.00
2023-03-27T18:46:17.993Z,100360.00
2023-03-27T18:48:48.248Z,100358.00
2023-03-27T18:51:17.764Z,100355.00
2023-03-27T18:53:45.279Z,100352.00
2023-03-27T18:56:13.369Z,100350.00
2023-03-27T18:58:41.449Z,100348.00
2023-03-27T19:01:09.178Z,100356.00
2023-03-27T19:03:38.322Z,100353.00
2023-03-27T19:06:07.587Z,100367.00
2023-03-27T19:08:36.838Z,100360.00
2023-03-27T19:11:04.719Z,100356.00
2023-03-27T19:13:32.761Z,100359.00
2023-03-27T19:16:00.503Z,100363.00
2023-03-27T19:18:29.403Z,100366.00
2023-03-27T19:20:59.079Z,100368.00
2023-03-27T19:23:27.209Z,100357.00
2023-03-27T19:25:54.713Z,100353.00
2023-03-27T19:28:22.040Z,100362.00
2023-03-27T19:30:52.061Z,100368.00
2023-03-27T19:33:20.060Z,100367.00
2023-03-27T19:35:51.423Z,100371.00
2023-03-27T19:38:19.010Z,100365.00
2023-03-27T19:40:46.588Z,100366.00
2023-03-27T19:43:14.996Z,100367.00
2023-03-27T19:45:53.117Z,100373.00
2023-03-27T19:48:26.783Z,100375.00
2023-03-27T19:50:58.284Z,100373.00
2023-03-27T19:53:26.471Z,100363.00
2023-03-27T19:55:53.794Z,100360.00
2023-03-27T19:58:21.936Z,100356.00
2023-03-27T20:00:51.891Z,100358.00
2023-03-27T20:03:19.488Z,100354.00
2023-03-27T20:05:49.175Z,100359.00
2023-03-27T20:08:17.001Z,100365.00
2023-03-27T20:10:44.696Z,100363.00
2023-03-27T20:13:12.437Z,100363.00
2023-03-27T20:15:40.848Z,100359.00
2023-03-27T20:18:08.713Z,100363.00
2023-03-27T20:20:37.851Z,100365.00
2023-03-27T20:23:07.212Z,100367.00
2023-03-27T20:25:34.897Z,100370.00
2023-03-27T20:28:04.510Z,100363.00
2023-03-27T20:30:34.570Z,100365.00
2023-03-27T20:33:02.552Z,100369.00
2023-03-27T20:35:31.176Z,100370.00
2023-03-27T20:38:04.065Z,100364.00
2023-03-27T20:40:51.926Z,100365.00
2023-03-27T20:43:22.162Z,100371.00
2023-03-27T20:45:51.273Z,100370.00
2023-03-27T20:48:21.038Z,100367.00
2023-03-27T20:50:50.692Z,100371.00
2023-03-27T20:53:25.446Z,100362.00
2023-03-27T20:56:00.031Z,100363.00
2023-03-27T20:58:27.930Z,100371.00
2023-03-27T21:00:56.205Z,100375.00
2023-03-27T21:03:23.805Z,100377.00
2023-03-27T21:05:51.652Z,100371.00
2023-03-27T21:08:18.959Z,100369.00
2023-03-27T21:10:53.116Z,100369.00
2023-03-27T21:13:21.239Z,100361.00
2023-03-27T21:15:48.632Z,100358.00
2023-03-27T21:18:16.108Z,100358.00
2023-03-27T21:20:43.565Z,100360.00
2023-03-27T21:23:10.841Z,100361.00
2023-03-27T21:25:38.247Z,100351.00
2023-03-27T21:28:06.389Z,100350.00
2023-03-27T21:30:46.697Z,100354.00
2023-03-27T21:33:16.047Z,100339.00
2023-03-27T21:35:45.334Z,100350.00
2023-03-27T21:38:12.765Z,100331.00
2023-03-27T21:40:40.566Z,100347.00
2023-03-27T21:43:08.342Z,100339.00
2023-03-27T21:45:37.103Z,100349.00
2023-03-27T21:48:04.787Z,100340.00
2023-03-27T21:50:32.126Z,100345.00
2023-03-27T21:52:59.450Z,100339.00
2023-03-27T21:55:26.829Z,100342.00
2023-03-27T21:57:54.157Z,100340.00
2023-03-27T22:00:21.623Z,100326.00
2023-03-27T22:02:49.683Z,100336.00
2023-03-27T22:05:25.417Z,100332.00
2023-03-27T22:07:59.882Z,100331.00
2023-03-27T22:10:38.142Z,100339.00
2023-03-27T22:13:10.079Z,100346.00
2023-03-27T22:15:40.697Z,100335.00
2023-03-27T22:18:21.715Z,100330.00
2023-03-27T22:20:54.934Z,100335.00
2023-03-27T22:23:25.059Z,100338.00
2023-03-27T22:25:54.176Z,100335.00
2023-03-27T22:28:21.668Z,100335.00
2023-03-27T22:30:50.494Z,100337.00
2023-03-27T22:33:18.637Z,100344.00
2023-03-27T22:35:49.502Z,100330.00
2023-03-27T22:38:17.205Z,100348.00
2023-03-27T22:40:44.859Z,100344.00
2023-03-27T22:43:12.328Z,100346.00
2023-03-27T22:45:51.777Z,100342.00
2023-03-27T22:48:20.043Z,100350.00
2023-03-27T22:50:54.235Z,100361.00
2023-03-27T22:53:21.870Z,100361.00
2023-03-27T22:55:49.478Z,100355.00
2023-03-27T22:58:16.861Z,100356.00
2023-03-27T23:00:46.655Z,100367.00
2023-03-27T23:03:14.266Z,100360.00
2023-03-27T23:05:43.775Z,100355.00
2023-03-27T23:08:11.334Z,100370.00
2023-03-27T23:10:38.762Z,100371.00
2023-03-27T23:13:07.174Z,100374.00
2023-03-27T23:15:34.711Z,100368.00
2023-03-27T23:18:02.033Z,100372.00
2023-03-27T23:20:30.451Z,100372.00
2023-03-27T23:22:58.394Z,100380.00
2023-03-27T23:25:25.753Z,100368.00
2023-03-27T23:27:53.050Z,100371.00
2023-03-27T23:30:20.711Z,100378.00
2023-03-27T23:32:48.032Z,100372.00
2023-03-27T23:35:16.185Z,100366.00
2023-03-27T23:37:43.458Z,100375.00
2023-03-27T23:40:11.780Z,100378.00
2023-03-27T23:42:39.089Z,100363.00
2023-03-27T23:45:07.470Z,100372.00
2023-03-27T23:47:43.800Z,100377.00
2023-03-27T23:50:13.344Z,100368.00
2023-03-27T23:52:42.919Z,100358.00
2023-03-27T23:55:17.278Z,100367.00
2023-03-27T23:57:53.207Z,100372.00
